sensor_id;sensor_type;location;lat;lon;timestamp;P1;durP1;ratioP1;P2;durP2;ratioP2
70953;SDS011;58618;47.490;8.736;2022-09-21T00:00:18;2.33;;;1.10;;
70953;SDS011;58618;47.490;8.736;2022-09-21T00:03:07;1.92;;;1.30;;
70953;SDS011;58618;47.490;8.736;2022-09-21T00:06:00;2.97;;;1.33;;
70953;SDS011;58618;47.490;8.736;2022-09-21T00:08:48;2.03;;;1.13;;
70953;SDS011;58618;47.490;8.736;2022-09-21T00:11:36;5.75;;;1.48;;
70953;SDS011;58618;47.490;8.736;2022-09-21T00:14:23;2.50;;;1.70;;
70953;SDS011;58618;47.490;8.736;2022-09-21T00:17:11;1.52;;;1.08;;
70953;SDS011;58618;47.490;8.736;2022-09-21T00:19:59;2.83;;;1.27;;
70953;SDS011;58618;47.490;8.736;2022-09-21T00:22:49;3.23;;;1.57;;
70953;SDS011;58618;47.490;8.736;2022-09-21T00:25:37;2.25;;;1.17;;
70953;SDS011;58618;47.490;8.736;2022-09-21T00:28:24;1.88;;;1.25;;
70953;SDS011;58618;47.490;8.736;2022-09-21T00:31:12;2.50;;;1.40;;
70953;SDS011;58618;47.490;8.736;2022-09-21T00:34:01;3.13;;;1.50;;
70953;SDS011;58618;47.490;8.736;2022-09-21T00:36:53;2.00;;;1.40;;
70953;SDS011;58618;47.490;8.736;2022-09-21T00:39:41;1.67;;;1.30;;
70953;SDS011;58618;47.490;8.736;2022-09-21T00:42:29;2.25;;;1.30;;
70953;SDS011;58618;47.490;8.736;2022-09-21T00:45:17;3.17;;;1.45;;
70953;SDS011;58618;47.490;8.736;2022-09-21T00:48:06;2.53;;;1.45;;
70953;SDS011;58618;47.490;8.736;2022-09-21T00:50:55;2.30;;;1.50;;
70953;SDS011;58618;47.490;8.736;2022-09-21T00:53:49;3.35;;;1.42;;
70953;SDS011;58618;47.490;8.736;2022-09-21T00:56:40;2.30;;;1.27;;
70953;SDS011;58618;47.490;8.736;2022-09-21T00:59:30;2.20;;;1.60;;
70953;SDS011;58618;47.490;8.736;2022-09-21T01:02:23;3.95;;;1.90;;
70953;SDS011;58618;47.490;8.736;2022-09-21T01:05:11;4.03;;;1.73;;
70953;SDS011;58618;47.490;8.736;2022-09-21T01:07:59;2.00;;;1.40;;
70953;SDS011;58618;47.490;8.736;2022-09-21T01:10:55;2.70;;;1.60;;
70953;SDS011;58618;47.490;8.736;2022-09-21T01:14:02;2.33;;;1.42;;
70953;SDS011;58618;47.490;8.736;2022-09-21T01:17:05;3.30;;;1.92;;
70953;SDS011;58618;47.490;8.736;2022-09-21T01:23:21;1.63;;;1.10;;
70953;SDS011;58618;47.490;8.736;2022-09-21T01:26:26;2.03;;;1.30;;
70953;SDS011;58618;47.490;8.736;2022-09-21T01:29:21;2.95;;;1.35;;
70953;SDS011;58618;47.490;8.736;2022-09-21T01:32:14;1.77;;;1.30;;
70953;SDS011;58618;47.490;8.736;2022-09-21T01:35:06;2.20;;;1.03;;
70953;SDS011;58618;47.490;8.736;2022-09-21T01:37:58;1.85;;;1.30;;
70953;SDS011;58618;47.490;8.736;2022-09-21T01:40:49;2.13;;;1.50;;
70953;SDS011;58618;47.490;8.736;2022-09-21T01:43:40;3.67;;;1.20;;
70953;SDS011;58618;47.490;8.736;2022-09-21T01:46:35;3.63;;;1.60;;
70953;SDS011;58618;47.490;8.736;2022-09-21T01:49:25;1.83;;;1.30;;
70953;SDS011;58618;47.490;8.736;2022-09-21T01:52:20;1.85;;;1.17;;
70953;SDS011;58618;47.490;8.736;2022-09-21T01:55:14;2.58;;;1.70;;
70953;SDS011;58618;47.490;8.736;2022-09-21T01:58:08;1.88;;;1.20;;
70953;SDS011;58618;47.490;8.736;2022-09-21T02:01:02;3.20;;;1.77;;
70953;SDS011;58618;47.490;8.736;2022-09-21T02:03:55;2.33;;;1.57;;
70953;SDS011;58618;47.490;8.736;2022-09-21T02:06:46;1.85;;;1.20;;
70953;SDS011;58618;47.490;8.736;2022-09-21T02:09:38;2.70;;;1.63;;
70953;SDS011;58618;47.490;8.736;2022-09-21T02:12:25;3.40;;;1.50;;
70953;SDS011;58618;47.490;8.736;2022-09-21T02:15:13;1.70;;;1.30;;
70953;SDS011;58618;47.490;8.736;2022-09-21T02:18:02;1.60;;;1.10;;
70953;SDS011;58618;47.490;8.736;2022-09-21T02:20:55;2.33;;;1.60;;
70953;SDS011;58618;47.490;8.736;2022-09-21T02:23:48;2.80;;;1.80;;
70953;SDS011;58618;47.490;8.736;2022-09-21T02:26:48;1.40;;;1.00;;
70953;SDS011;58618;47.490;8.736;2022-09-21T02:29:44;2.45;;;1.23;;
70953;SDS011;58618;47.490;8.736;2022-09-21T02:32:37;1.93;;;1.23;;
70953;SDS011;58618;47.490;8.736;2022-09-21T02:35:34;2.75;;;1.20;;
70953;SDS011;58618;47.490;8.736;2022-09-21T02:38:29;2.13;;;1.30;;
70953;SDS011;58618;47.490;8.736;2022-09-21T02:41:22;1.75;;;1.33;;
70953;SDS011;58618;47.490;8.736;2022-09-21T02:44:15;2.55;;;1.67;;
70953;SDS011;58618;47.490;8.736;2022-09-21T02:47:09;2.67;;;1.40;;
70953;SDS011;58618;47.490;8.736;2022-09-21T02:50:02;1.42;;;1.00;;
70953;SDS011;58618;47.490;8.736;2022-09-21T02:52:53;2.03;;;1.23;;
70953;SDS011;58618;47.490;8.736;2022-09-21T02:55:43;1.65;;;1.20;;
70953;SDS011;58618;47.490;8.736;2022-09-21T02:58:33;1.85;;;1.40;;
70953;SDS011;58618;47.490;8.736;2022-09-21T03:01:23;2.77;;;1.67;;
70953;SDS011;58618;47.490;8.736;2022-09-21T03:04:12;2.33;;;1.25;;
70953;SDS011;58618;47.490;8.736;2022-09-21T03:06:59;2.58;;;1.55;;
70953;SDS011;58618;47.490;8.736;2022-09-21T03:09:47;2.58;;;1.20;;
70953;SDS011;58618;47.490;8.736;2022-09-21T03:12:35;3.33;;;1.90;;
70953;SDS011;58618;47.490;8.736;2022-09-21T03:15:23;2.80;;;1.40;;
70953;SDS011;58618;47.490;8.736;2022-09-21T03:18:11;1.60;;;1.10;;
70953;SDS011;58618;47.490;8.736;2022-09-21T03:20:59;1.88;;;1.27;;
70953;SDS011;58618;47.490;8.736;2022-09-21T03:23:47;2.00;;;1.27;;
70953;SDS011;58618;47.490;8.736;2022-09-21T03:26:35;2.25;;;1.48;;
70953;SDS011;58618;47.490;8.736;2022-09-21T03:29:24;3.10;;;1.70;;
70953;SDS011;58618;47.490;8.736;2022-09-21T03:32:11;1.65;;;1.20;;
70953;SDS011;58618;47.490;8.736;2022-09-21T03:34:59;2.15;;;1.40;;
70953;SDS011;58618;47.490;8.736;2022-09-21T03:37:46;2.92;;;1.42;;
70953;SDS011;58618;47.490;8.736;2022-09-21T03:40:34;1.95;;;1.27;;
70953;SDS011;58618;47.490;8.736;2022-09-21T03:43:22;1.47;;;1.30;;
70953;SDS011;58618;47.490;8.736;2022-09-21T03:46:11;5.03;;;1.20;;
70953;SDS011;58618;47.490;8.736;2022-09-21T03:48:58;3.25;;;1.88;;
70953;SDS011;58618;47.490;8.736;2022-09-21T03:51:45;2.47;;;1.50;;
70953;SDS011;58618;47.490;8.736;2022-09-21T03:54:33;2.28;;;1.38;;
70953;SDS011;58618;47.490;8.736;2022-09-21T03:57:21;2.70;;;1.60;;
70953;SDS011;58618;47.490;8.736;2022-09-21T04:00:09;1.80;;;1.05;;
70953;SDS011;58618;47.490;8.736;2022-09-21T04:02:58;2.67;;;1.40;;
70953;SDS011;58618;47.490;8.736;2022-09-21T04:05:46;3.00;;;1.85;;
70953;SDS011;58618;47.490;8.736;2022-09-21T04:08:34;2.58;;;1.38;;
70953;SDS011;58618;47.490;8.736;2022-09-21T04:11:21;2.30;;;1.40;;
70953;SDS011;58618;47.490;8.736;2022-09-21T04:14:09;2.97;;;1.25;;
70953;SDS011;58618;47.490;8.736;2022-09-21T04:16:57;2.88;;;1.80;;
70953;SDS011;58618;47.490;8.736;2022-09-21T04:19:45;2.03;;;1.30;;
70953;SDS011;58618;47.490;8.736;2022-09-21T04:22:33;1.52;;;0.95;;
70953;SDS011;58618;47.490;8.736;2022-09-21T04:25:21;2.07;;;1.43;;
70953;SDS011;58618;47.490;8.736;2022-09-21T04:28:08;2.78;;;1.70;;
70953;SDS011;58618;47.490;8.736;2022-09-21T04:30:56;2.53;;;1.83;;
70953;SDS011;58618;47.490;8.736;2022-09-21T04:33:43;2.60;;;1.60;;
70953;SDS011;58618;47.490;8.736;2022-09-21T04:36:31;3.22;;;1.55;;
70953;SDS011;58618;47.490;8.736;2022-09-21T04:39:19;1.97;;;1.40;;
70953;SDS011;58618;47.490;8.736;2022-09-21T04:42:06;3.42;;;1.65;;
70953;SDS011;58618;47.490;8.736;2022-09-21T04:44:54;3.08;;;1.70;;
70953;SDS011;58618;47.490;8.736;2022-09-21T04:47:42;2.85;;;1.10;;
70953;SDS011;58618;47.490;8.736;2022-09-21T04:50:29;4.35;;;1.70;;
70953;SDS011;58618;47.490;8.736;2022-09-21T04:53:18;6.10;;;1.70;;
70953;SDS011;58618;47.490;8.736;2022-09-21T04:56:05;1.73;;;1.38;;
70953;SDS011;58618;47.490;8.736;2022-09-21T04:58:54;2.25;;;1.55;;
70953;SDS011;58618;47.490;8.736;2022-09-21T05:01:41;2.15;;;1.60;;
70953;SDS011;58618;47.490;8.736;2022-09-21T05:04:28;1.42;;;1.15;;
70953;SDS011;58618;47.490;8.736;2022-09-21T05:07:16;5.17;;;2.03;;
70953;SDS011;58618;47.490;8.736;2022-09-21T05:10:05;1.60;;;1.02;;
70953;SDS011;58618;47.490;8.736;2022-09-21T05:12:54;2.15;;;1.25;;
70953;SDS011;58618;47.490;8.736;2022-09-21T05:15:41;2.15;;;1.30;;
70953;SDS011;58618;47.490;8.736;2022-09-21T05:18:28;2.83;;;1.77;;
70953;SDS011;58618;47.490;8.736;2022-09-21T05:21:15;1.90;;;1.37;;
70953;SDS011;58618;47.490;8.736;2022-09-21T05:24:03;3.05;;;1.58;;
70953;SDS011;58618;47.490;8.736;2022-09-21T05:26:52;3.20;;;1.50;;
70953;SDS011;58618;47.490;8.736;2022-09-21T05:29:39;2.65;;;1.80;;
70953;SDS011;58618;47.490;8.736;2022-09-21T05:32:29;4.20;;;1.90;;
70953;SDS011;58618;47.490;8.736;2022-09-21T05:35:28;2.60;;;1.57;;
70953;SDS011;58618;47.490;8.736;2022-09-21T05:38:22;5.97;;;2.38;;
70953;SDS011;58618;47.490;8.736;2022-09-21T05:41:10;1.88;;;1.50;;
70953;SDS011;58618;47.490;8.736;2022-09-21T05:43:59;2.33;;;1.40;;
70953;SDS011;58618;47.490;8.736;2022-09-21T05:46:48;2.40;;;1.55;;
70953;SDS011;58618;47.490;8.736;2022-09-21T05:49:44;2.47;;;1.60;;
70953;SDS011;58618;47.490;8.736;2022-09-21T05:52:37;2.63;;;1.70;;
70953;SDS011;58618;47.490;8.736;2022-09-21T05:55:34;3.05;;;1.85;;
70953;SDS011;58618;47.490;8.736;2022-09-21T05:58:34;4.15;;;2.40;;
70953;SDS011;58618;47.490;8.736;2022-09-21T06:01:30;3.47;;;1.98;;
70953;SDS011;58618;47.490;8.736;2022-09-21T06:04:28;3.53;;;1.83;;
70953;SDS011;58618;47.490;8.736;2022-09-21T06:07:16;3.55;;;2.10;;
70953;SDS011;58618;47.490;8.736;2022-09-21T06:10:03;2.83;;;1.77;;
70953;SDS011;58618;47.490;8.736;2022-09-21T06:12:51;5.97;;;1.92;;
70953;SDS011;58618;47.490;8.736;2022-09-21T06:15:38;2.72;;;1.83;;
70953;SDS011;58618;47.490;8.736;2022-09-21T06:18:28;2.53;;;1.73;;
70953;SDS011;58618;47.490;8.736;2022-09-21T06:21:15;2.58;;;1.83;;
70953;SDS011;58618;47.490;8.736;2022-09-21T06:24:03;3.95;;;1.90;;
70953;SDS011;58618;47.490;8.736;2022-09-21T06:26:50;2.75;;;1.85;;
70953;SDS011;58618;47.490;8.736;2022-09-21T06:29:38;3.35;;;1.90;;
70953;SDS011;58618;47.490;8.736;2022-09-21T06:32:25;2.67;;;2.07;;
70953;SDS011;58618;47.490;8.736;2022-09-21T06:35:14;2.30;;;1.70;;
70953;SDS011;58618;47.490;8.736;2022-09-21T06:38:02;3.63;;;2.25;;
70953;SDS011;58618;47.490;8.736;2022-09-21T06:40:51;2.88;;;2.10;;
70953;SDS011;58618;47.490;8.736;2022-09-21T06:43:38;3.00;;;2.10;;
70953;SDS011;58618;47.490;8.736;2022-09-21T06:46:26;2.33;;;1.70;;
70953;SDS011;58618;47.490;8.736;2022-09-21T06:49:13;3.15;;;2.10;;
70953;SDS011;58618;47.490;8.736;2022-09-21T06:52:02;4.03;;;2.20;;
70953;SDS011;58618;47.490;8.736;2022-09-21T06:54:49;3.10;;;2.08;;
70953;SDS011;58618;47.490;8.736;2022-09-21T06:57:36;4.03;;;1.83;;
70953;SDS011;58618;47.490;8.736;2022-09-21T07:00:24;2.67;;;1.90;;
70953;SDS011;58618;47.490;8.736;2022-09-21T07:03:12;3.70;;;2.25;;
70953;SDS011;58618;47.490;8.736;2022-09-21T07:05:59;6.75;;;2.30;;
70953;SDS011;58618;47.490;8.736;2022-09-21T07:08:50;3.53;;;2.22;;
70953;SDS011;58618;47.490;8.736;2022-09-21T07:11:38;2.92;;;1.98;;
70953;SDS011;58618;47.490;8.736;2022-09-21T07:14:26;3.80;;;2.10;;
70953;SDS011;58618;47.490;8.736;2022-09-21T07:17:14;3.13;;;1.92;;
70953;SDS011;58618;47.490;8.736;2022-09-21T07:20:01;3.17;;;2.15;;
70953;SDS011;58618;47.490;8.736;2022-09-21T07:22:50;2.75;;;1.88;;
70953;SDS011;58618;47.490;8.736;2022-09-21T07:25:39;3.67;;;2.10;;
70953;SDS011;58618;47.490;8.736;2022-09-21T07:28:26;3.10;;;1.90;;
70953;SDS011;58618;47.490;8.736;2022-09-21T07:31:14;5.45;;;2.20;;
70953;SDS011;58618;47.490;8.736;2022-09-21T07:34:02;2.88;;;1.77;;
70953;SDS011;58618;47.490;8.736;2022-09-21T07:36:50;5.20;;;2.13;;
70953;SDS011;58618;47.490;8.736;2022-09-21T07:39:37;3.15;;;2.20;;
70953;SDS011;58618;47.490;8.736;2022-09-21T07:42:26;2.27;;;1.50;;
70953;SDS011;58618;47.490;8.736;2022-09-21T07:45:15;2.75;;;2.00;;
70953;SDS011;58618;47.490;8.736;2022-09-21T07:48:03;3.55;;;2.05;;
70953;SDS011;58618;47.490;8.736;2022-09-21T07:50:50;4.18;;;2.30;;
70953;SDS011;58618;47.490;8.736;2022-09-21T07:53:38;3.90;;;2.15;;
70953;SDS011;58618;47.490;8.736;2022-09-21T07:56:28;3.37;;;1.93;;
70953;SDS011;58618;47.490;8.736;2022-09-21T07:59:17;3.72;;;2.20;;
70953;SDS011;58618;47.490;8.736;2022-09-21T08:02:05;4.05;;;2.30;;
70953;SDS011;58618;47.490;8.736;2022-09-21T08:04:52;3.05;;;1.88;;
70953;SDS011;58618;47.490;8.736;2022-09-21T08:07:39;3.67;;;2.10;;
70953;SDS011;58618;47.490;8.736;2022-09-21T08:10:27;3.60;;;2.20;;
70953;SDS011;58618;47.490;8.736;2022-09-21T08:13:15;4.55;;;2.00;;
70953;SDS011;58618;47.490;8.736;2022-09-21T08:16:03;2.95;;;2.20;;
70953;SDS011;58618;47.490;8.736;2022-09-21T08:18:51;2.95;;;1.77;;
70953;SDS011;58618;47.490;8.736;2022-09-21T08:21:38;4.13;;;2.20;;
70953;SDS011;58618;47.490;8.736;2022-09-21T08:24:26;2.27;;;1.60;;
70953;SDS011;58618;47.490;8.736;2022-09-21T08:27:13;3.60;;;1.95;;
70953;SDS011;58618;47.490;8.736;2022-09-21T08:30:01;4.25;;;2.03;;
70953;SDS011;58618;47.490;8.736;2022-09-21T08:32:50;2.80;;;1.92;;
70953;SDS011;58618;47.490;8.736;2022-09-21T08:35:40;2.78;;;1.85;;
70953;SDS011;58618;47.490;8.736;2022-09-21T08:38:31;3.00;;;1.80;;
70953;SDS011;58618;47.490;8.736;2022-09-21T08:41:21;2.70;;;1.75;;
70953;SDS011;58618;47.490;8.736;2022-09-21T08:44:12;2.78;;;1.70;;
70953;SDS011;58618;47.490;8.736;2022-09-21T08:47:05;2.80;;;1.90;;
70953;SDS011;58618;47.490;8.736;2022-09-21T08:50:00;2.33;;;1.55;;
70953;SDS011;58618;47.490;8.736;2022-09-21T08:52:50;3.33;;;1.70;;
70953;SDS011;58618;47.490;8.736;2022-09-21T08:55:43;2.33;;;1.63;;
70953;SDS011;58618;47.490;8.736;2022-09-21T08:58:31;2.63;;;1.67;;
70953;SDS011;58618;47.490;8.736;2022-09-21T09:01:23;2.35;;;1.60;;
70953;SDS011;58618;47.490;8.736;2022-09-21T09:04:22;2.67;;;1.80;;
70953;SDS011;58618;47.490;8.736;2022-09-21T09:07:20;2.70;;;1.53;;
70953;SDS011;58618;47.490;8.736;2022-09-21T09:10:19;3.45;;;1.60;;
70953;SDS011;58618;47.490;8.736;2022-09-21T09:13:25;3.97;;;1.73;;
70953;SDS011;58618;47.490;8.736;2022-09-21T09:16:28;2.63;;;1.58;;
70953;SDS011;58618;47.490;8.736;2022-09-21T09:19:23;2.13;;;1.40;;
70953;SDS011;58618;47.490;8.736;2022-09-21T09:22:20;3.03;;;1.30;;
70953;SDS011;58618;47.490;8.736;2022-09-21T09:25:14;3.28;;;1.52;;
70953;SDS011;58618;47.490;8.736;2022-09-21T09:28:11;3.15;;;1.77;;
70953;SDS011;58618;47.490;8.736;2022-09-21T09:31:09;3.65;;;1.70;;
70953;SDS011;58618;47.490;8.736;2022-09-21T09:34:07;4.75;;;1.80;;
70953;SDS011;58618;47.490;8.736;2022-09-21T09:36:58;2.93;;;1.13;;
70953;SDS011;58618;47.490;8.736;2022-09-21T09:39:50;2.47;;;1.15;;
70953;SDS011;58618;47.490;8.736;2022-09-21T09:42:48;1.65;;;1.23;;
70953;SDS011;58618;47.490;8.736;2022-09-21T09:45:44;2.33;;;1.15;;
70953;SDS011;58618;47.490;8.736;2022-09-21T09:48:45;1.90;;;0.98;;
70953;SDS011;58618;47.490;8.736;2022-09-21T09:51:41;2.53;;;1.17;;
70953;SDS011;58618;47.490;8.736;2022-09-21T09:54:28;3.45;;;1.23;;
70953;SDS011;58618;47.490;8.736;2022-09-21T09:57:23;2.45;;;1.30;;
70953;SDS011;58618;47.490;8.736;2022-09-21T10:00:15;1.83;;;1.20;;
70953;SDS011;58618;47.490;8.736;2022-09-21T10:03:07;1.48;;;1.10;;
70953;SDS011;58618;47.490;8.736;2022-09-21T10:06:02;3.23;;;1.40;;
70953;SDS011;58618;47.490;8.736;2022-09-21T10:08:50;3.20;;;1.38;;
70953;SDS011;58618;47.490;8.736;2022-09-21T10:11:38;2.85;;;1.30;;
70953;SDS011;58618;47.490;8.736;2022-09-21T10:14:29;2.58;;;1.20;;
70953;SDS011;58618;47.490;8.736;2022-09-21T10:17:20;1.55;;;1.05;;
70953;SDS011;58618;47.490;8.736;2022-09-21T10:20:13;1.60;;;1.10;;
70953;SDS011;58618;47.490;8.736;2022-09-21T10:23:03;1.77;;;1.02;;
70953;SDS011;58618;47.490;8.736;2022-09-21T10:26:01;2.08;;;1.02;;
70953;SDS011;58618;47.490;8.736;2022-09-21T10:28:54;1.65;;;0.90;;
70953;SDS011;58618;47.490;8.736;2022-09-21T10:31:53;1.52;;;0.88;;
70953;SDS011;58618;47.490;8.736;2022-09-21T10:34:58;2.10;;;1.00;;
70953;SDS011;58618;47.490;8.736;2022-09-21T10:37:47;1.88;;;0.95;;
70953;SDS011;58618;47.490;8.736;2022-09-21T10:40:54;2.55;;;1.20;;
70953;SDS011;58618;47.490;8.736;2022-09-21T10:43:42;1.50;;;0.90;;
70953;SDS011;58618;47.490;8.736;2022-09-21T10:46:33;1.25;;;0.70;;
70953;SDS011;58618;47.490;8.736;2022-09-21T10:49:23;1.23;;;1.00;;
70953;SDS011;58618;47.490;8.736;2022-09-21T10:52:13;1.40;;;0.90;;
70953;SDS011;58618;47.490;8.736;2022-09-21T10:55:00;1.30;;;1.10;;
70953;SDS011;58618;47.490;8.736;2022-09-21T10:57:48;2.17;;;1.15;;
70953;SDS011;58618;47.490;8.736;2022-09-21T11:00:39;1.90;;;0.90;;
70953;SDS011;58618;47.490;8.736;2022-09-21T11:03:41;1.33;;;0.90;;
70953;SDS011;58618;47.490;8.736;2022-09-21T11:06:38;0.85;;;0.73;;
70953;SDS011;58618;47.490;8.736;2022-09-21T11:09:31;2.72;;;0.98;;
70953;SDS011;58618;47.490;8.736;2022-09-21T11:12:27;0.93;;;0.65;;
70953;SDS011;58618;47.490;8.736;2022-09-21T11:15:22;1.20;;;0.80;;
70953;SDS011;58618;47.490;8.736;2022-09-21T11:18:20;1.10;;;0.70;;
70953;SDS011;58618;47.490;8.736;2022-09-21T11:21:12;1.27;;;0.75;;
70953;SDS011;58618;47.490;8.736;2022-09-21T11:24:05;1.92;;;1.02;;
70953;SDS011;58618;47.490;8.736;2022-09-21T11:27:04;1.50;;;0.88;;
70953;SDS011;58618;47.490;8.736;2022-09-21T11:29:59;1.08;;;0.77;;
70953;SDS011;58618;47.490;8.736;2022-09-21T11:32:52;1.67;;;0.90;;
70953;SDS011;58618;47.490;8.736;2022-09-21T11:35:56;2.08;;;0.93;;
70953;SDS011;58618;47.490;8.736;2022-09-21T11:38:54;0.95;;;0.75;;
70953;SDS011;58618;47.490;8.736;2022-09-21T11:41:52;0.70;;;0.68;;
70953;SDS011;58618;47.490;8.736;2022-09-21T11:44:49;1.00;;;0.80;;
70953;SDS011;58618;47.490;8.736;2022-09-21T11:47:45;1.93;;;0.80;;
70953;SDS011;58618;47.490;8.736;2022-09-21T11:50:45;2.58;;;1.00;;
70953;SDS011;58618;47.490;8.736;2022-09-21T11:53:45;0.77;;;0.75;;
70953;SDS011;58618;47.490;8.736;2022-09-21T11:56:53;1.00;;;0.75;;
70953;SDS011;58618;47.490;8.736;2022-09-21T11:59:53;1.17;;;0.82;;
70953;SDS011;58618;47.490;8.736;2022-09-21T12:03:12;1.87;;;0.80;;
70953;SDS011;58618;47.490;8.736;2022-09-21T12:06:16;0.85;;;0.80;;
70953;SDS011;58618;47.490;8.736;2022-09-21T12:09:30;1.25;;;0.90;;
70953;SDS011;58618;47.490;8.736;2022-09-21T12:12:33;1.10;;;0.90;;
70953;SDS011;58618;47.490;8.736;2022-09-21T12:15:27;2.15;;;0.73;;
70953;SDS011;58618;47.490;8.736;2022-09-21T12:18:22;1.00;;;0.60;;
70953;SDS011;58618;47.490;8.736;2022-09-21T12:21:18;0.70;;;0.65;;
70953;SDS011;58618;47.490;8.736;2022-09-21T12:24:11;1.00;;;0.70;;
70953;SDS011;58618;47.490;8.736;2022-09-21T12:27:04;1.30;;;0.75;;
70953;SDS011;58618;47.490;8.736;2022-09-21T12:29:57;2.15;;;0.80;;
70953;SDS011;58618;47.490;8.736;2022-09-21T12:32:50;0.77;;;0.70;;
70953;SDS011;58618;47.490;8.736;2022-09-21T12:35:45;2.40;;;0.85;;
70953;SDS011;58618;47.490;8.736;2022-09-21T12:38:38;1.45;;;0.85;;
70953;SDS011;58618;47.490;8.736;2022-09-21T12:41:31;2.00;;;1.10;;
70953;SDS011;58618;47.490;8.736;2022-09-21T12:44:25;1.35;;;0.90;;
70953;SDS011;58618;47.490;8.736;2022-09-21T12:47:42;0.90;;;0.63;;
70953;SDS011;58618;47.490;8.736;2022-09-21T12:50:36;1.02;;;0.70;;
70953;SDS011;58618;47.490;8.736;2022-09-21T12:53:29;0.85;;;0.63;;
70953;SDS011;58618;47.490;8.736;2022-09-21T12:56:23;1.30;;;0.90;;
70953;SDS011;58618;47.490;8.736;2022-09-21T12:59:23;2.35;;;0.90;;
70953;SDS011;58618;47.490;8.736;2022-09-21T13:02:18;1.73;;;1.10;;
70953;SDS011;58618;47.490;8.736;2022-09-21T13:05:12;1.50;;;1.00;;
70953;SDS011;58618;47.490;8.736;2022-09-21T13:08:08;2.00;;;1.00;;
70953;SDS011;58618;47.490;8.736;2022-09-21T13:10:58;1.50;;;0.80;;
70953;SDS011;58618;47.490;8.736;2022-09-21T13:13:50;1.33;;;0.90;;
70953;SDS011;58618;47.490;8.736;2022-09-21T13:16:44;1.70;;;1.10;;
70953;SDS011;58618;47.490;8.736;2022-09-21T13:19:42;1.20;;;0.60;;
70953;SDS011;58618;47.490;8.736;2022-09-21T13:22:31;2.55;;;1.10;;
70953;SDS011;58618;47.490;8.736;2022-09-21T13:25:22;0.93;;;0.80;;
70953;SDS011;58618;47.490;8.736;2022-09-21T13:28:17;1.95;;;0.80;;
70953;SDS011;58618;47.490;8.736;2022-09-21T13:34:21;1.08;;;0.70;;
70953;SDS011;58618;47.490;8.736;2022-09-21T13:37:22;1.77;;;0.95;;
70953;SDS011;58618;47.490;8.736;2022-09-21T13:46:53;1.00;;;0.70;;
70953;SDS011;58618;47.490;8.736;2022-09-21T13:49:46;1.00;;;0.70;;
70953;SDS011;58618;47.490;8.736;2022-09-21T13:52:37;1.45;;;0.70;;
70953;SDS011;58618;47.490;8.736;2022-09-21T13:55:30;1.25;;;0.73;;
70953;SDS011;58618;47.490;8.736;2022-09-21T13:58:22;1.05;;;0.85;;
70953;SDS011;58618;47.490;8.736;2022-09-21T14:01:14;1.63;;;0.60;;
70953;SDS011;58618;47.490;8.736;2022-09-21T14:07:10;0.77;;;0.68;;
70953;SDS011;58618;47.490;8.736;2022-09-21T14:09:59;2.33;;;0.70;;
70953;SDS011;58618;47.490;8.736;2022-09-21T14:12:51;1.42;;;0.80;;
70953;SDS011;58618;47.490;8.736;2022-09-21T14:15:40;1.43;;;0.57;;
70953;SDS011;58618;47.490;8.736;2022-09-21T14:18:36;1.30;;;0.80;;
70953;SDS011;58618;47.490;8.736;2022-09-21T14:21:23;0.85;;;0.65;;
70953;SDS011;58618;47.490;8.736;2022-09-21T14:24:18;0.80;;;0.75;;
70953;SDS011;58618;47.490;8.736;2022-09-21T14:27:12;1.42;;;0.80;;
70953;SDS011;58618;47.490;8.736;2022-09-21T14:30:03;1.03;;;0.60;;
70953;SDS011;58618;47.490;8.736;2022-09-21T14:32:56;1.25;;;0.80;;
70953;SDS011;58618;47.490;8.736;2022-09-21T14:35:53;1.92;;;0.93;;
70953;SDS011;58618;47.490;8.736;2022-09-21T14:38:44;1.08;;;0.80;;
70953;SDS011;58618;47.490;8.736;2022-09-21T14:41:36;0.80;;;0.68;;
70953;SDS011;58618;47.490;8.736;2022-09-21T14:44:27;2.30;;;0.67;;
70953;SDS011;58618;47.490;8.736;2022-09-21T14:47:20;0.90;;;0.70;;
70953;SDS011;58618;47.490;8.736;2022-09-21T14:50:29;1.60;;;0.80;;
70953;SDS011;58618;47.490;8.736;2022-09-21T14:53:32;1.48;;;1.05;;
70953;SDS011;58618;47.490;8.736;2022-09-21T14:56:45;1.25;;;0.80;;
70953;SDS011;58618;47.490;8.736;2022-09-21T14:59:51;3.60;;;0.70;;
70953;SDS011;58618;47.490;8.736;2022-09-21T15:02:48;1.10;;;0.60;;
70953;SDS011;58618;47.490;8.736;2022-09-21T15:05:49;2.78;;;0.70;;
70953;SDS011;58618;47.490;8.736;2022-09-21T15:08:44;2.50;;;0.98;;
70953;SDS011;58618;47.490;8.736;2022-09-21T15:12:00;1.15;;;0.68;;
70953;SDS011;58618;47.490;8.736;2022-09-21T15:14:58;1.00;;;0.60;;
70953;SDS011;58618;47.490;8.736;2022-09-21T15:17:50;0.82;;;0.70;;
70953;SDS011;58618;47.490;8.736;2022-09-21T15:20:43;0.70;;;0.60;;
70953;SDS011;58618;47.490;8.736;2022-09-21T15:23:33;0.77;;;0.52;;
70953;SDS011;58618;47.490;8.736;2022-09-21T15:26:25;2.22;;;1.20;;
70953;SDS011;58618;47.490;8.736;2022-09-21T15:29:20;6.33;;;3.43;;
70953;SDS011;58618;47.490;8.736;2022-09-21T15:32:14;3.15;;;1.00;;
70953;SDS011;58618;47.490;8.736;2022-09-21T15:35:15;1.35;;;0.60;;
70953;SDS011;58618;47.490;8.736;2022-09-21T15:41:17;1.10;;;0.80;;
70953;SDS011;58618;47.490;8.736;2022-09-21T15:44:30;0.80;;;0.60;;
70953;SDS011;58618;47.490;8.736;2022-09-21T15:47:20;1.10;;;0.70;;
70953;SDS011;58618;47.490;8.736;2022-09-21T15:50:11;1.00;;;0.80;;
70953;SDS011;58618;47.490;8.736;2022-09-21T15:53:01;0.60;;;0.60;;
70953;SDS011;58618;47.490;8.736;2022-09-21T15:55:51;0.75;;;0.60;;
70953;SDS011;58618;47.490;8.736;2022-09-21T15:58:40;1.23;;;0.87;;
70953;SDS011;58618;47.490;8.736;2022-09-21T16:01:33;1.02;;;0.60;;
70953;SDS011;58618;47.490;8.736;2022-09-21T16:04:27;2.35;;;0.80;;
70953;SDS011;58618;47.490;8.736;2022-09-21T16:13:25;0.90;;;0.73;;
70953;SDS011;58618;47.490;8.736;2022-09-21T16:16:49;4.57;;;1.88;;
70953;SDS011;58618;47.490;8.736;2022-09-21T16:20:05;1.50;;;0.90;;
70953;SDS011;58618;47.490;8.736;2022-09-21T16:23:05;0.98;;;0.80;;
70953;SDS011;58618;47.490;8.736;2022-09-21T16:26:01;8.23;;;2.80;;
70953;SDS011;58618;47.490;8.736;2022-09-21T16:28:54;1.50;;;0.87;;
70953;SDS011;58618;47.490;8.736;2022-09-21T16:31:43;0.80;;;0.60;;
70953;SDS011;58618;47.490;8.736;2022-09-21T16:34:33;1.25;;;0.70;;
70953;SDS011;58618;47.490;8.736;2022-09-21T16:37:23;0.80;;;0.60;;
70953;SDS011;58618;47.490;8.736;2022-09-21T16:40:14;1.25;;;0.70;;
70953;SDS011;58618;47.490;8.736;2022-09-21T16:43:01;0.67;;;0.50;;
70953;SDS011;58618;47.490;8.736;2022-09-21T16:45:50;2.58;;;0.80;;
70953;SDS011;58618;47.490;8.736;2022-09-21T16:48:37;0.60;;;0.55;;
70953;SDS011;58618;47.490;8.736;2022-09-21T16:51:26;0.80;;;0.65;;
70953;SDS011;58618;47.490;8.736;2022-09-21T16:54:16;1.75;;;0.77;;
70953;SDS011;58618;47.490;8.736;2022-09-21T16:57:05;1.43;;;0.80;;
70953;SDS011;58618;47.490;8.736;2022-09-21T16:59:52;1.98;;;0.80;;
70953;SDS011;58618;47.490;8.736;2022-09-21T17:02:40;0.73;;;0.60;;
70953;SDS011;58618;47.490;8.736;2022-09-21T17:05:30;0.98;;;0.65;;
70953;SDS011;58618;47.490;8.736;2022-09-21T17:08:18;0.85;;;0.70;;
70953;SDS011;58618;47.490;8.736;2022-09-21T17:11:06;1.90;;;0.70;;
70953;SDS011;58618;47.490;8.736;2022-09-21T17:13:54;0.63;;;0.60;;
70953;SDS011;58618;47.490;8.736;2022-09-21T17:16:49;1.02;;;0.80;;
70953;SDS011;58618;47.490;8.736;2022-09-21T17:19:38;1.42;;;0.60;;
70953;SDS011;58618;47.490;8.736;2022-09-21T17:22:26;0.82;;;0.60;;
70953;SDS011;58618;47.490;8.736;2022-09-21T17:25:16;1.10;;;0.73;;
70953;SDS011;58618;47.490;8.736;2022-09-21T17:28:09;1.42;;;0.65;;
70953;SDS011;58618;47.490;8.736;2022-09-21T17:30:59;1.23;;;0.63;;
70953;SDS011;58618;47.490;8.736;2022-09-21T17:33:51;1.00;;;0.70;;
70953;SDS011;58618;47.490;8.736;2022-09-21T17:36:39;1.00;;;0.80;;
70953;SDS011;58618;47.490;8.736;2022-09-21T17:39:26;1.00;;;0.63;;
70953;SDS011;58618;47.490;8.736;2022-09-21T17:42:16;0.70;;;0.60;;